createdAt,value
2018-06-05T00:00:04.012Z,2.60
2018-06-05T00:02:32.643Z,2.90
2018-06-05T00:05:01.308Z,2.67
2018-06-05T00:07:29.967Z,3.07
2018-06-05T00:09:59.312Z,3.13
2018-06-05T00:12:27.932Z,2.30
2018-06-05T00:14:56.528Z,2.90
2018-06-05T00:17:25.184Z,3.40
2018-06-05T00:19:53.803Z,3.27
2018-06-05T00:22:22.446Z,3.20
2018-06-05T00:24:51.068Z,3.00
2018-06-05T00:27:19.669Z,3.00
2018-06-05T00:29:48.281Z,2.80
2018-06-05T00:32:16.920Z,2.90
2018-06-05T00:34:45.503Z,2.63
2018-06-05T00:37:14.091Z,3.00
2018-06-05T00:39:42.679Z,2.57
2018-06-05T00:42:11.308Z,2.67
2018-06-05T00:44:39.948Z,2.40
2018-06-05T00:47:08.560Z,3.20
2018-06-05T00:49:37.195Z,2.63
2018-06-05T00:52:07.639Z,3.03
2018-06-05T00:54:36.277Z,2.67
2018-06-05T00:57:05.065Z,2.63
2018-06-05T00:59:33.672Z,2.30
2018-06-05T01:02:02.292Z,3.03
2018-06-05T01:04:30.943Z,2.80
2018-06-05T01:06:59.560Z,2.90
2018-06-05T01:09:28.167Z,2.90
2018-06-05T01:11:56.780Z,3.07
2018-06-05T01:14:25.400Z,3.00
2018-06-05T01:16:54.001Z,2.77
2018-06-05T01:19:22.620Z,2.97
2018-06-05T01:21:51.223Z,3.10
2018-06-05T01:24:19.944Z,3.17
2018-06-05T01:26:48.564Z,2.57
2018-06-05T01:29:17.161Z,3.00
2018-06-05T01:31:45.780Z,2.70
2018-06-05T01:34:14.025Z,3.03
2018-06-05T01:36:42.723Z,2.83
2018-06-05T01:39:11.320Z,3.10
2018-06-05T01:41:39.963Z,3.10
2018-06-05T01:44:08.232Z,2.97
2018-06-05T01:46:36.884Z,2.63
2018-06-05T01:49:05.528Z,2.93
2018-06-05T01:51:34.148Z,2.80
2018-06-05T01:54:02.761Z,3.07
2018-06-05T01:56:31.392Z,3.47
2018-06-05T01:59:00.032Z,2.67
2018-06-05T02:01:28.655Z,2.87
2018-06-05T02:03:57.253Z,2.93
2018-06-05T02:06:25.871Z,2.53
2018-06-05T02:08:54.491Z,3.03
2018-06-05T02:11:23.107Z,3.03
2018-06-05T02:13:51.711Z,3.33
2018-06-05T02:16:20.312Z,3.53
2018-06-05T02:18:48.927Z,2.73
2018-06-05T02:21:17.543Z,2.80
2018-06-05T02:23:46.148Z,2.80
2018-06-05T02:26:14.760Z,2.97
2018-06-05T02:28:43.368Z,4.07
2018-06-05T02:31:11.968Z,4.23
2018-06-05T02:33:40.576Z,4.53
2018-06-05T02:36:09.184Z,4.57
2018-06-05T02:38:37.800Z,4.03
2018-06-05T02:41:06.456Z,4.40
2018-06-05T02:43:35.093Z,4.20
2018-06-05T02:46:03.720Z,4.03
2018-06-05T02:48:32.324Z,4.63
2018-06-05T02:51:00.924Z,4.53
2018-06-05T02:53:29.516Z,4.40
2018-06-05T02:55:58.139Z,5.50
2018-06-05T02:58:26.747Z,4.27
2018-06-05T03:00:55.368Z,4.60
2018-06-05T03:03:23.976Z,4.70
2018-06-05T03:05:52.567Z,4.40
2018-06-05T03:08:21.187Z,4.53
2018-06-05T03:10:49.808Z,5.63
2018-06-05T03:13:18.442Z,4.33
2018-06-05T03:15:47.092Z,5.30
2018-06-05T03:18:15.697Z,5.83
2018-06-05T03:20:44.313Z,5.40
2018-06-05T03:23:12.927Z,5.07
2018-06-05T03:25:41.525Z,5.53
2018-06-05T03:28:10.147Z,5.30
2018-06-05T03:30:38.778Z,5.40
2018-06-05T03:33:07.409Z,5.20
2018-06-05T03:35:36.048Z,5.07
2018-06-05T03:38:04.668Z,3.97
2018-06-05T03:40:33.278Z,3.97
2018-06-05T03:43:01.921Z,3.93
2018-06-05T03:45:30.544Z,4.00
2018-06-05T03:47:59.144Z,3.20
2018-06-05T03:50:27.758Z,3.53
2018-06-05T03:52:56.368Z,3.63
2018-06-05T03:55:24.979Z,3.60
2018-06-05T03:57:53.607Z,3.37
2018-06-05T04:00:22.222Z,3.33
2018-06-05T04:02:50.850Z,4.10
2018-06-05T04:05:19.490Z,4.27
2018-06-05T04:07:48.104Z,4.60
2018-06-05T04:10:16.713Z,4.00
2018-06-05T04:12:45.328Z,4.83
2018-06-05T04:15:13.939Z,4.90
2018-06-05T04:17:42.553Z,5.20
2018-06-05T04:20:11.186Z,5.13
2018-06-05T04:22:39.792Z,6.80
2018-06-05T04:25:08.416Z,6.60
2018-06-05T04:27:37.059Z,6.43
2018-06-05T04:30:06.403Z,5.50
2018-06-05T04:32:35.004Z,6.53
2018-06-05T04:35:04.182Z,6.80
2018-06-05T04:37:32.780Z,6.43
2018-06-05T04:40:01.467Z,6.33
2018-06-05T04:42:30.096Z,6.00
2018-06-05T04:44:58.799Z,6.33
2018-06-05T04:47:27.388Z,5.97
2018-06-05T04:49:56.008Z,7.00
2018-06-05T04:52:24.600Z,6.30
2018-06-05T04:54:53.215Z,6.17
2018-06-05T04:57:21.812Z,6.13
2018-06-05T04:59:50.404Z,6.47
2018-06-05T05:02:18.992Z,7.07
2018-06-05T05:04:47.592Z,5.27
2018-06-05T05:07:16.180Z,5.70
2018-06-05T05:09:44.795Z,5.17
2018-06-05T05:12:13.392Z,4.97
2018-06-05T05:14:41.996Z,5.20
2018-06-05T05:17:10.592Z,4.73
2018-06-05T05:19:39.200Z,5.87
2018-06-05T05:22:07.788Z,7.87
2018-06-05T05:24:36.385Z,5.57
2018-06-05T05:27:04.739Z,5.17
2018-06-05T05:29:33.508Z,4.87
2018-06-05T05:32:02.132Z,5.27
2018-06-05T05:34:30.767Z,4.10
2018-06-05T05:36:59.360Z,3.77
2018-06-05T05:39:27.964Z,3.43
2018-06-05T05:41:56.572Z,3.13
2018-06-05T05:44:25.181Z,5.73
2018-06-05T05:46:53.890Z,4.07
2018-06-05T05:49:22.493Z,3.70
2018-06-05T05:51:51.103Z,3.90
2018-06-05T05:54:19.698Z,4.33
2018-06-05T05:56:47.942Z,5.00
2018-06-05T05:59:16.542Z,4.93
2018-06-05T06:01:45.155Z,3.63
2018-06-05T06:04:13.907Z,3.40
2018-06-05T06:06:42.508Z,3.50
2018-06-05T06:09:10.740Z,3.13
2018-06-05T06:11:39.347Z,3.47
2018-06-05T06:14:07.960Z,3.20
2018-06-05T06:16:36.564Z,3.03
2018-06-05T06:19:05.163Z,3.50
2018-06-05T06:21:33.744Z,3.50
2018-06-05T06:24:02.331Z,3.90
2018-06-05T06:26:30.935Z,3.70
2018-06-05T06:28:59.576Z,4.80
2018-06-05T06:31:28.172Z,5.00
2018-06-05T06:33:56.763Z,4.20
2018-06-05T06:36:25.361Z,3.87
2018-06-05T06:38:53.944Z,3.97
2018-06-05T06:41:22.557Z,3.93
2018-06-05T06:43:51.151Z,4.50
2018-06-05T06:46:19.744Z,3.70
2018-06-05T06:48:48.423Z,3.53
2018-06-05T06:51:17.015Z,3.10
2018-06-05T06:53:45.615Z,3.60
2018-06-05T06:56:14.293Z,3.47
2018-06-05T06:58:42.929Z,3.57
2018-06-05T07:01:11.519Z,4.80
2018-06-05T07:03:40.143Z,4.90
2018-06-05T07:06:08.760Z,4.70
2018-06-05T07:08:37.353Z,5.10
2018-06-05T07:11:06.039Z,4.87
2018-06-05T07:13:34.730Z,3.57
2018-06-05T07:16:03.332Z,4.10
2018-06-05T07:18:32.515Z,3.80
2018-06-05T07:21:01.133Z,3.87
2018-06-05T07:23:29.753Z,3.63
2018-06-05T07:25:58.399Z,3.90
2018-06-05T07:28:27.012Z,3.10
2018-06-05T07:30:55.643Z,3.30
2018-06-05T07:33:24.275Z,3.20
2018-06-05T07:35:53.071Z,3.47
2018-06-05T07:38:21.672Z,3.50
2018-06-05T07:40:50.289Z,2.83
2018-06-05T07:43:18.880Z,3.03
2018-06-05T07:45:47.542Z,3.13
2018-06-05T07:48:16.148Z,3.93
2018-06-05T07:50:44.777Z,2.83
2018-06-05T07:53:13.380Z,2.60
2018-06-05T07:55:42.010Z,2.37
2018-06-05T07:58:10.639Z,2.50
2018-06-05T08:00:39.240Z,2.87
2018-06-05T08:03:07.860Z,2.90
2018-06-05T08:05:36.466Z,2.90
2018-06-05T08:08:05.202Z,2.60
2018-06-05T08:10:33.824Z,2.30
2018-06-05T08:13:02.437Z,2.93
2018-06-05T08:15:31.160Z,3.20
2018-06-05T08:17:59.766Z,2.83
2018-06-05T08:20:28.413Z,4.43
2018-06-05T08:22:57.397Z,4.13
2018-06-05T08:25:26.139Z,4.30
2018-06-05T08:27:54.790Z,4.07
2018-06-05T08:30:23.437Z,3.60
2018-06-05T08:32:52.133Z,3.67
2018-06-05T08:35:20.745Z,2.53
2018-06-05T08:37:49.395Z,3.00
2018-06-05T08:40:18.018Z,3.23
2018-06-05T08:42:46.636Z,2.77
2018-06-05T08:45:14.912Z,3.10
2018-06-05T08:47:43.565Z,3.00
2018-06-05T08:50:12.172Z,2.80
2018-06-05T08:52:40.793Z,3.07
2018-06-05T08:55:09.417Z,2.80
2018-06-05T08:57:38.028Z,3.23
2018-06-05T09:00:06.712Z,2.83
2018-06-05T09:02:35.323Z,3.07
2018-06-05T09:05:04.633Z,2.90
2018-06-05T09:07:33.240Z,2.83
2018-06-05T09:10:01.885Z,3.20
2018-06-05T09:12:30.506Z,3.00
2018-06-05T09:14:59.115Z,3.10
2018-06-05T09:17:27.772Z,3.07
2018-06-05T09:19:56.388Z,2.80
2018-06-05T09:22:24.994Z,2.83
2018-06-05T09:24:53.619Z,3.00
2018-06-05T09:27:22.237Z,2.90
2018-06-05T09:29:50.868Z,3.30
2018-06-05T09:32:19.495Z,3.60
2018-06-05T09:34:48.117Z,3.47
2018-06-05T09:37:16.744Z,3.43
2018-06-05T09:39:45.368Z,3.27
2018-06-05T09:42:14.015Z,3.20
2018-06-05T09:44:42.659Z,3.00
2018-06-05T09:47:11.280Z,3.10
2018-06-05T09:49:39.894Z,3.47
2018-06-05T09:52:08.513Z,3.30
2018-06-05T09:54:37.164Z,3.30
2018-06-05T09:57:05.780Z,2.73
2018-06-05T09:59:34.431Z,3.47
2018-06-05T10:06:22.550Z,3.20
2018-06-05T10:08:51.479Z,3.30
2018-06-05T10:11:20.380Z,3.10
2018-06-05T10:13:49.304Z,3.67
2018-06-05T10:16:17.841Z,3.57
2018-06-05T10:18:46.750Z,3.40
2018-06-05T10:21:15.655Z,3.30
2018-06-05T10:23:44.606Z,3.47
2018-06-05T10:26:13.573Z,2.80
2018-06-05T10:28:42.474Z,2.90
2018-06-05T10:31:11.489Z,2.80
2018-06-05T10:33:40.425Z,3.33
2018-06-05T10:36:09.346Z,3.33
2018-06-05T10:38:38.278Z,3.80
2018-06-05T10:41:07.333Z,3.70
2018-06-05T10:43:36.282Z,3.23
2018-06-05T10:46:05.214Z,3.87
2018-06-05T10:48:34.129Z,3.80
2018-06-05T10:51:03.058Z,2.70
2018-06-05T10:53:31.949Z,3.20
2018-06-05T10:56:00.862Z,3.13
2018-06-05T10:58:29.906Z,3.17
2018-06-05T11:00:58.831Z,2.80
2018-06-05T11:03:27.749Z,2.80
2018-06-05T11:05:56.653Z,2.90
2018-06-05T11:08:25.578Z,2.77
2018-06-05T11:10:54.493Z,3.07
2018-06-05T11:13:23.405Z,3.07
2018-06-05T11:15:52.341Z,2.80
2018-06-05T11:18:21.277Z,3.20
2018-06-05T11:20:50.237Z,2.60
2018-06-05T11:23:19.173Z,2.80
2018-06-05T11:25:48.614Z,3.07
2018-06-05T11:28:17.526Z,2.60
2018-06-05T11:30:46.960Z,2.60
2018-06-05T11:33:15.922Z,2.77
2018-06-05T11:35:44.849Z,2.73
2018-06-05T11:38:13.801Z,3.50
2018-06-05T11:40:42.795Z,3.00
2018-06-05T11:43:11.738Z,2.77
2018-06-05T11:45:40.697Z,2.70
2018-06-05T11:48:09.673Z,2.50
2018-06-05T11:50:38.645Z,2.50
2018-06-05T11:53:07.551Z,2.50
2018-06-05T11:55:36.477Z,2.53
2018-06-05T11:58:05.389Z,2.90
2018-06-05T12:00:34.294Z,2.43
2018-06-05T12:03:03.210Z,2.50
2018-06-05T12:05:32.121Z,2.70
2018-06-05T12:08:01.022Z,2.90
2018-06-05T12:10:29.929Z,2.50
2018-06-05T12:12:58.859Z,2.87
2018-06-05T12:15:27.788Z,2.60
2018-06-05T12:17:56.711Z,2.43
2018-06-05T12:20:25.638Z,2.40
2018-06-05T12:22:54.549Z,2.67
2018-06-05T12:25:23.457Z,2.70
2018-06-05T12:27:52.397Z,3.00
2018-06-05T12:30:21.330Z,2.23
2018-06-05T12:32:50.277Z,2.43
2018-06-05T12:35:19.213Z,1.77
2018-06-05T12:37:48.113Z,2.17
2018-06-05T12:40:17.030Z,2.50
2018-06-05T12:42:45.945Z,2.40
2018-06-05T12:45:14.915Z,2.10
2018-06-05T12:47:43.846Z,2.00
2018-06-05T12:50:12.826Z,2.40
2018-06-05T12:52:41.755Z,1.90
2018-06-05T12:55:10.683Z,2.50
2018-06-05T12:57:39.670Z,1.73
2018-06-05T13:00:09.503Z,1.90
2018-06-05T13:02:38.430Z,2.00
2018-06-05T13:05:06.920Z,2.20
2018-06-05T13:07:35.830Z,2.33
2018-06-05T13:10:05.418Z,2.10
2018-06-05T13:12:34.368Z,1.90
2018-06-05T13:15:03.946Z,2.40
2018-06-05T13:17:32.454Z,1.73
2018-06-05T13:20:01.426Z,1.80
2018-06-05T13:22:30.326Z,1.60
2018-06-05T13:24:59.365Z,1.83
2018-06-05T13:27:28.304Z,1.70
2018-06-05T13:29:57.257Z,1.67
2018-06-05T13:32:26.227Z,1.70
2018-06-05T13:34:55.211Z,1.80
2018-06-05T13:37:24.133Z,2.30
2018-06-05T13:39:53.057Z,1.60
2018-06-05T13:42:21.572Z,2.27
2018-06-05T13:44:50.525Z,1.50
2018-06-05T13:47:19.494Z,1.93
2018-06-05T13:49:48.717Z,2.10
2018-06-05T13:52:17.663Z,2.00
2018-06-05T13:54:46.585Z,1.90
2018-06-05T13:57:15.841Z,1.50
2018-06-05T13:59:44.797Z,2.20
2018-06-05T14:02:13.692Z,2.33
2018-06-05T14:04:42.642Z,1.53
2018-06-05T14:07:11.577Z,1.90
2018-06-05T14:09:40.524Z,1.90
2018-06-05T14:12:09.437Z,2.07
2018-06-05T14:14:38.358Z,2.00
2018-06-05T14:17:07.326Z,1.63
2018-06-05T14:19:36.232Z,1.53
2018-06-05T14:22:05.145Z,1.67
2018-06-05T14:24:34.070Z,1.80
2018-06-05T14:27:03.050Z,2.10
2018-06-05T14:29:32.103Z,1.63
2018-06-05T14:32:01.047Z,2.17
2018-06-05T14:34:30.031Z,2.23
2018-06-05T14:36:59.077Z,1.90
2018-06-05T14:39:28.034Z,2.37
2018-06-05T14:41:56.973Z,1.93
2018-06-05T14:44:25.885Z,1.90
2018-06-05T14:46:54.789Z,1.90
2018-06-05T14:49:23.700Z,2.13
2018-06-05T14:51:52.633Z,2.00
2018-06-05T14:54:21.572Z,1.90
2018-06-05T14:56:50.486Z,1.90
2018-06-05T14:59:18.975Z,2.23
2018-06-05T15:01:47.902Z,3.07
2018-06-05T15:04:16.798Z,2.47
2018-06-05T15:06:45.701Z,3.10
2018-06-05T15:09:14.617Z,3.63
2018-06-05T15:11:43.535Z,3.27
2018-06-05T15:14:12.453Z,3.33
2018-06-05T15:16:41.388Z,3.83
2018-06-05T15:19:10.316Z,3.33
2018-06-05T15:21:39.224Z,2.87
2018-06-05T15:24:08.186Z,2.87
2018-06-05T15:26:37.110Z,3.20
2018-06-05T15:29:06.988Z,3.13
2018-06-05T15:31:35.904Z,2.80
2018-06-05T15:34:04.905Z,2.40
2018-06-05T15:36:33.874Z,2.43
2018-06-05T15:39:03.117Z,2.67
2018-06-05T15:41:32.034Z,2.97
2018-06-05T15:44:01.010Z,3.27
2018-06-05T15:46:29.913Z,2.67
2018-06-05T15:48:58.833Z,2.37
2018-06-05T15:51:27.746Z,3.27
2018-06-05T15:53:56.654Z,4.00
2018-06-05T15:56:25.574Z,3.97
2018-06-05T15:58:54.499Z,4.10
2018-06-05T16:01:23.456Z,4.30
2018-06-05T16:03:52.361Z,4.60
2018-06-05T16:06:21.282Z,4.27
2018-06-05T16:08:50.205Z,4.60
2018-06-05T16:11:19.125Z,3.87
2018-06-05T16:13:48.045Z,3.63
2018-06-05T16:16:16.534Z,4.23
2018-06-05T16:18:45.434Z,4.23
2018-06-05T16:21:14.344Z,4.07
2018-06-05T16:23:43.279Z,4.00
2018-06-05T16:26:12.313Z,4.03
2018-06-05T16:28:41.834Z,4.40
2018-06-05T16:31:11.298Z,4.70
2018-06-05T16:33:40.225Z,4.10
2018-06-05T16:36:09.606Z,4.53
2018-06-05T16:38:38.522Z,4.37
2018-06-05T16:41:07.442Z,3.43
2018-06-05T16:43:36.366Z,4.33
2018-06-05T16:46:05.294Z,4.17
2018-06-05T16:48:34.209Z,4.43
2018-06-05T16:51:03.126Z,3.90
2018-06-05T16:53:32.049Z,4.13
2018-06-05T16:56:01.030Z,4.10
2018-06-05T16:58:29.986Z,4.27
2018-06-05T17:00:58.893Z,3.27
2018-06-05T17:03:27.814Z,4.10
2018-06-05T17:05:56.730Z,4.33
2018-06-05T17:08:25.657Z,3.90
2018-06-05T17:10:54.553Z,3.93
2018-06-05T17:13:23.469Z,4.37
2018-06-05T17:15:52.373Z,4.07
2018-06-05T17:18:21.306Z,4.67
2018-06-05T17:20:50.202Z,3.57
2018-06-05T17:23:19.125Z,3.63
2018-06-05T17:25:48.075Z,4.20
2018-06-05T17:28:17.050Z,3.63
2018-06-05T17:30:45.993Z,4.03
2018-06-05T17:33:14.931Z,4.33
2018-06-05T17:35:43.871Z,4.07
2018-06-05T17:38:12.793Z,4.28
2018-06-05T17:40:41.710Z,4.03
2018-06-05T17:43:10.613Z,4.13
2018-06-05T17:45:39.591Z,3.93
2018-06-05T17:48:08.546Z,4.17
2018-06-05T17:50:37.453Z,3.87
2018-06-05T17:53:06.369Z,4.00
2018-06-05T17:55:35.281Z,3.73
2018-06-05T17:58:04.185Z,4.17
2018-06-05T18:00:33.113Z,3.60
2018-06-05T18:03:02.082Z,3.60
2018-06-05T18:05:31.049Z,4.20
2018-06-05T18:07:59.969Z,3.83
2018-06-05T18:10:29.173Z,4.07
2018-06-05T18:12:58.080Z,3.93
2018-06-05T18:15:26.986Z,4.10
2018-06-05T18:17:55.942Z,3.83
2018-06-05T18:22:59.303Z,3.93
2018-06-05T18:25:28.239Z,4.30
2018-06-05T18:27:57.173Z,3.80
2018-06-05T18:30:26.113Z,4.00
2018-06-05T18:32:55.090Z,4.13
2018-06-05T18:35:23.988Z,4.30
2018-06-05T18:37:52.889Z,4.47
2018-06-05T18:40:21.784Z,3.90
2018-06-05T18:42:50.686Z,3.97
2018-06-05T18:45:19.582Z,4.03
2018-06-05T18:47:48.485Z,4.07
2018-06-05T18:50:17.406Z,4.20
2018-06-05T18:52:46.319Z,4.23
2018-06-05T18:55:15.245Z,4.00
2018-06-05T18:57:44.223Z,4.03
2018-06-05T19:00:13.125Z,4.67
2018-06-05T19:02:42.107Z,7.87
2018-06-05T19:05:11.098Z,4.90
2018-06-05T19:07:40.001Z,4.40
2018-06-05T19:10:08.929Z,3.70
2018-06-05T19:12:37.870Z,4.53
2018-06-05T19:15:06.825Z,5.63
2018-06-05T19:17:35.742Z,4.57
2018-06-05T19:20:04.973Z,4.20
2018-06-05T19:22:33.511Z,5.30
2018-06-05T19:25:02.411Z,4.73
2018-06-05T19:27:31.300Z,3.60
2018-06-05T19:30:00.209Z,4.20
2018-06-05T19:32:29.140Z,4.80
2018-06-05T19:34:58.034Z,4.63
2018-06-05T19:37:26.950Z,4.60
2018-06-05T19:39:55.849Z,4.63
2018-06-05T19:42:24.750Z,4.53
2018-06-05T19:44:53.665Z,4.07
2018-06-05T19:47:22.152Z,4.30
2018-06-05T19:49:51.992Z,4.43
2018-06-05T19:52:20.929Z,4.83
2018-06-05T19:54:49.891Z,4.60
2018-06-05T19:57:18.938Z,4.50
2018-06-05T19:59:48.018Z,4.50
2018-06-05T20:02:17.003Z,4.63
2018-06-05T20:04:45.964Z,5.20
2018-06-05T20:07:15.438Z,4.70
2018-06-05T20:09:44.402Z,5.00
2018-06-05T20:12:13.353Z,5.20
2018-06-05T20:14:44.025Z,4.77
2018-06-05T20:17:14.172Z,5.43
2018-06-05T20:22:47.485Z,5.33
2018-06-05T20:30:19.769Z,4.93
2018-06-05T20:32:49.305Z,6.13
2018-06-05T20:35:18.768Z,5.80
2018-06-05T20:37:49.681Z,5.70
2018-06-05T20:40:24.529Z,5.73
2018-06-05T20:42:53.545Z,5.90
2018-06-05T20:45:22.489Z,6.73
2018-06-05T20:47:52.208Z,6.33
2018-06-05T20:50:21.227Z,7.63
2018-06-05T20:52:50.164Z,6.90
2018-06-05T20:55:19.095Z,7.77
2018-06-05T20:57:48.077Z,8.47
2018-06-05T21:00:17.018Z,7.60
2018-06-05T21:02:46.034Z,7.77
2018-06-05T21:05:14.982Z,7.67
2018-06-05T21:07:44.012Z,7.53
2018-06-05T21:10:13.015Z,6.93
2018-06-05T21:12:41.950Z,6.77
2018-06-05T21:15:10.893Z,6.67
2018-06-05T21:17:39.938Z,7.53
2018-06-05T21:20:10.010Z,6.63
2018-06-05T21:22:38.943Z,7.20
2018-06-05T21:25:08.393Z,7.13
2018-06-05T21:27:37.324Z,7.03
2018-06-05T21:30:07.526Z,7.47
2018-06-05T21:32:36.474Z,7.93
2018-06-05T21:35:05.437Z,8.30
2018-06-05T21:37:36.521Z,7.17
2018-06-05T21:40:05.574Z,7.33
2018-06-05T21:42:34.529Z,7.63
2018-06-05T21:45:04.154Z,7.40
2018-06-05T21:47:33.091Z,8.80
2018-06-05T21:50:02.055Z,9.20
2018-06-05T21:52:31.016Z,9.30
2018-06-05T21:55:00.018Z,9.30
2018-06-05T21:57:28.948Z,6.73
2018-06-05T21:59:57.869Z,7.20
2018-06-05T22:02:26.806Z,7.73
2018-06-05T22:04:55.750Z,8.33
2018-06-05T22:07:24.677Z,8.77
2018-06-05T22:09:53.606Z,8.90
2018-06-05T22:12:22.551Z,7.80
2018-06-05T22:14:51.471Z,7.50
2018-06-05T22:17:20.402Z,9.30
2018-06-05T22:19:49.395Z,8.47
2018-06-05T22:22:18.313Z,7.20
2018-06-05T22:24:47.221Z,7.07
2018-06-05T22:27:16.149Z,6.80
2018-06-05T22:29:45.078Z,7.83
2018-06-05T22:32:14.020Z,8.20
2018-06-05T22:34:43.025Z,7.47
2018-06-05T22:37:11.991Z,7.73
2018-06-05T22:39:40.933Z,10.33
2018-06-05T22:42:09.460Z,9.90
2018-06-05T22:44:38.398Z,12.57
2018-06-05T22:47:07.314Z,11.40
2018-06-05T22:49:36.245Z,11.33
2018-06-05T22:52:05.210Z,14.83
2018-06-05T22:54:34.165Z,13.23
2018-06-05T22:57:03.089Z,12.87
2018-06-05T22:59:32.189Z,13.10
2018-06-05T23:02:01.114Z,14.13
2018-06-05T23:04:30.098Z,13.27
2018-06-05T23:06:59.036Z,13.70
2018-06-05T23:09:27.951Z,12.90
2018-06-05T23:11:56.908Z,12.63
2018-06-05T23:14:25.414Z,13.50
2018-06-05T23:16:54.363Z,13.20
2018-06-05T23:19:23.294Z,13.83
2018-06-05T23:21:52.209Z,13.10
2018-06-05T23:24:21.149Z,13.53
2018-06-05T23:26:50.080Z,13.00
2018-06-05T23:29:19.011Z,12.33
2018-06-05T23:31:47.961Z,14.27
2018-06-05T23:34:16.898Z,14.00
2018-06-05T23:36:45.826Z,14.13
2018-06-05T23:39:14.729Z,13.55
2018-06-05T23:41:43.689Z,13.53
2018-06-05T23:44:12.672Z,14.23
2018-06-05T23:46:41.614Z,13.87
2018-06-05T23:49:10.570Z,15.13
2018-06-05T23:51:39.505Z,13.03
2018-06-05T23:54:08.485Z,14.73
2018-06-05T23:56:37.394Z,14.60
2018-06-05T23:59:06.329Z,14.60
